sensor_id;sensor_type;location;lat;lon;timestamp;pressure;altitude;pressure_sealevel;temperature;humidity
68193;BME280;55012;47.562;18.414;2023-04-26T00:01:46;99336.53;;;6.80;100.00
68193;BME280;55012;47.562;18.414;2023-04-26T00:04:12;99337.34;;;6.81;100.00
68193;BME280;55012;47.562;18.414;2023-04-26T00:06:38;99338.59;;;6.83;100.00
68193;BME280;55012;47.562;18.414;2023-04-26T00:09:03;99347.44;;;6.84;100.00
68193;BME280;55012;47.562;18.414;2023-04-26T00:11:29;99345.72;;;6.88;100.00
68193;BME280;55012;47.562;18.414;2023-04-26T00:13:57;99342.38;;;6.91;100.00
68193;BME280;55012;47.562;18.414;2023-04-26T00:16:22;99350.91;;;6.93;100.00
68193;BME280;55012;47.562;18.414;2023-04-26T00:18:48;99347.44;;;6.92;100.00
68193;BME280;55012;47.562;18.414;2023-04-26T00:21:15;99363.09;;;6.90;100.00
68193;BME280;55012;47.562;18.414;2023-04-26T00:23:41;99348.22;;;6.84;100.00
68193;BME280;55012;47.562;18.414;2023-04-26T00:26:07;99347.91;;;6.77;100.00
68193;BME280;55012;47.562;18.414;2023-04-26T00:28:32;99361.53;;;6.72;100.00
68193;BME280;55012;47.562;18.414;2023-04-26T00:30:58;99368.63;;;6.68;100.00
68193;BME280;55012;47.562;18.414;2023-04-26T00:33:23;99366.91;;;6.63;100.00
68193;BME280;55012;47.562;18.414;2023-04-26T00:35:50;99375.09;;;6.58;100.00
68193;BME280;55012;47.562;18.414;2023-04-26T00:38:15;99376.53;;;6.56;100.00
68193;BME280;55012;47.562;18.414;2023-04-26T00:40:41;99364.50;;;6.53;100.00
68193;BME280;55012;47.562;18.414;2023-04-26T00:43:06;99368.28;;;6.52;100.00
68193;BME280;55012;47.562;18.414;2023-04-26T00:45:32;99383.81;;;6.55;100.00
68193;BME280;55012;47.562;18.414;2023-04-26T00:48:00;99374.63;;;6.56;100.00
68193;BME280;55012;47.562;18.414;2023-04-26T00:50:26;99379.38;;;6.59;100.00
68193;BME280;55012;47.562;18.414;2023-04-26T00:52:51;99375.09;;;6.58;100.00
68193;BME280;55012;47.562;18.414;2023-04-26T00:55:20;99377.66;;;6.55;100.00
68193;BME280;55012;47.562;18.414;2023-04-26T00:57:45;99383.31;;;6.53;100.00
68193;BME280;55012;47.562;18.414;2023-04-26T01:00:12;99384.09;;;6.54;100.00
68193;BME280;55012;47.562;18.414;2023-04-26T01:02:37;99381.59;;;6.57;100.00
68193;BME280;55012;47.562;18.414;2023-04-26T01:05:03;99389.66;;;6.57;100.00
68193;BME280;55012;47.562;18.414;2023-04-26T01:07:30;99389.00;;;6.60;100.00
68193;BME280;55012;47.562;18.414;2023-04-26T01:09:57;99392.03;;;6.59;100.00
68193;BME280;55012;47.562;18.414;2023-04-26T01:12:23;99393.44;;;6.56;100.00
68193;BME280;55012;47.562;18.414;2023-04-26T01:14:50;99391.56;;;6.57;100.00
68193;BME280;55012;47.562;18.414;2023-04-26T01:17:16;99388.69;;;6.53;100.00
68193;BME280;55012;47.562;18.414;2023-04-26T01:19:46;99385.53;;;6.51;100.00
68193;BME280;55012;47.562;18.414;2023-04-26T01:22:12;99389.16;;;6.46;100.00
68193;BME280;55012;47.562;18.414;2023-04-26T01:24:37;99395.78;;;6.40;100.00
68193;BME280;55012;47.562;18.414;2023-04-26T01:27:04;99389.63;;;6.40;100.00
68193;BME280;55012;47.562;18.414;2023-04-26T01:29:30;99400.06;;;6.41;100.00
68193;BME280;55012;47.562;18.414;2023-04-26T01:31:56;99396.56;;;6.41;100.00
68193;BME280;55012;47.562;18.414;2023-04-26T01:34:21;99396.44;;;6.37;100.00
68193;BME280;55012;47.562;18.414;2023-04-26T01:36:47;99402.72;;;6.33;100.00
68193;BME280;55012;47.562;18.414;2023-04-26T01:39:12;99390.41;;;6.32;100.00
68193;BME280;55012;47.562;18.414;2023-04-26T01:41:38;99401.75;;;6.29;100.00
68193;BME280;55012;47.562;18.414;2023-04-26T01:44:03;99406.97;;;6.25;100.00
68193;BME280;55012;47.562;18.414;2023-04-26T01:46:29;99409.50;;;6.22;100.00
68193;BME280;55012;47.562;18.414;2023-04-26T01:48:54;99415.78;;;6.17;100.00
68193;BME280;55012;47.562;18.414;2023-04-26T01:51:21;99412.16;;;6.13;100.00
68193;BME280;55012;47.562;18.414;2023-04-26T01:53:47;99405.81;;;6.09;100.00
68193;BME280;55012;47.562;18.414;2023-04-26T01:56:12;99411.31;;;6.04;100.00
68193;BME280;55012;47.562;18.414;2023-04-26T01:58:38;99421.41;;;5.98;100.00
68193;BME280;55012;47.562;18.414;2023-04-26T02:01:05;99419.31;;;5.95;100.00
68193;BME280;55012;47.562;18.414;2023-04-26T02:03:31;99419.94;;;5.92;100.00
68193;BME280;55012;47.562;18.414;2023-04-26T02:05:56;99417.59;;;5.90;100.00
68193;BME280;55012;47.562;18.414;2023-04-26T02:08:22;99420.84;;;5.87;100.00
68193;BME280;55012;47.562;18.414;2023-04-26T02:10:47;99423.34;;;5.84;100.00
68193;BME280;55012;47.562;18.414;2023-04-26T02:13:14;99425.69;;;5.77;100.00
68193;BME280;55012;47.562;18.414;2023-04-26T02:15:39;99434.06;;;5.75;100.00
68193;BME280;55012;47.562;18.414;2023-04-26T02:18:06;99437.38;;;5.72;100.00
68193;BME280;55012;47.562;18.414;2023-04-26T02:20:32;99446.81;;;5.70;100.00
68193;BME280;55012;47.562;18.414;2023-04-26T02:22:57;99442.38;;;5.65;100.00
68193;BME280;55012;47.562;18.414;2023-04-26T02:25:23;99451.31;;;5.60;100.00
68193;BME280;55012;47.562;18.414;2023-04-26T02:27:49;99446.91;;;5.56;100.00
68193;BME280;55012;47.562;18.414;2023-04-26T02:30:14;99436.09;;;5.47;100.00
68193;BME280;55012;47.562;18.414;2023-04-26T02:32:40;99444.16;;;5.47;100.00
68193;BME280;55012;47.562;18.414;2023-04-26T02:35:05;99440.78;;;5.42;100.00
68193;BME280;55012;47.562;18.414;2023-04-26T02:37:32;99447.25;;;5.41;100.00
68193;BME280;55012;47.562;18.414;2023-04-26T02:40:01;99440.91;;;5.36;100.00
68193;BME280;55012;47.562;18.414;2023-04-26T02:42:28;99441.53;;;5.33;100.00
68193;BME280;55012;47.562;18.414;2023-04-26T02:44:53;99440.25;;;5.31;100.00
68193;BME280;55012;47.562;18.414;2023-04-26T02:47:19;99436.59;;;5.27;100.00
68193;BME280;55012;47.562;18.414;2023-04-26T02:49:44;99435.09;;;5.21;100.00
68193;BME280;55012;47.562;18.414;2023-04-26T02:52:09;99443.47;;;5.19;100.00
68193;BME280;55012;47.562;18.414;2023-04-26T02:54:35;99431.78;;;5.15;100.00
68193;BME280;55012;47.562;18.414;2023-04-26T02:57:00;99437.25;;;5.10;100.00
68193;BME280;55012;47.562;18.414;2023-04-26T02:59:26;99436.75;;;5.08;100.00
68193;BME280;55012;47.562;18.414;2023-04-26T03:01:51;99443.31;;;5.02;100.00
68193;BME280;55012;47.562;18.414;2023-04-26T03:04:17;99446.00;;;5.02;100.00
68193;BME280;55012;47.562;18.414;2023-04-26T03:06:42;99447.72;;;4.98;100.00
68193;BME280;55012;47.562;18.414;2023-04-26T03:09:08;99442.63;;;4.96;100.00
68193;BME280;55012;47.562;18.414;2023-04-26T03:11:33;99447.03;;;4.92;100.00
68193;BME280;55012;47.562;18.414;2023-04-26T03:13:59;99450.59;;;4.88;100.00
68193;BME280;55012;47.562;18.414;2023-04-26T03:16:26;99463.22;;;4.87;100.00
68193;BME280;55012;47.562;18.414;2023-04-26T03:18:52;99470.28;;;4.83;100.00
68193;BME280;55012;47.562;18.414;2023-04-26T03:21:18;99467.38;;;4.79;100.00
68193;BME280;55012;47.562;18.414;2023-04-26T03:23:44;99468.31;;;4.75;100.00
68193;BME280;55012;47.562;18.414;2023-04-26T03:26:10;99453.91;;;4.71;100.00
68193;BME280;55012;47.562;18.414;2023-04-26T03:28:35;99459.09;;;4.67;100.00
68193;BME280;55012;47.562;18.414;2023-04-26T03:31:01;99468.53;;;4.65;100.00
68193;BME280;55012;47.562;18.414;2023-04-26T03:33:27;99476.34;;;4.61;100.00
68193;BME280;55012;47.562;18.414;2023-04-26T03:35:52;99478.06;;;4.57;100.00
68193;BME280;55012;47.562;18.414;2023-04-26T03:38:17;99478.63;;;4.54;100.00
68193;BME280;55012;47.562;18.414;2023-04-26T03:40:43;99480.03;;;4.51;100.00
68193;BME280;55012;47.562;18.414;2023-04-26T03:43:08;99475.59;;;4.47;100.00
68193;BME280;55012;47.562;18.414;2023-04-26T03:45:34;99481.81;;;4.42;100.00
68193;BME280;55012;47.562;18.414;2023-04-26T03:48:00;99486.69;;;4.40;100.00
68193;BME280;55012;47.562;18.414;2023-04-26T03:50:26;99491.84;;;4.37;100.00
68193;BME280;55012;47.562;18.414;2023-04-26T03:52:52;99502.34;;;4.33;100.00
68193;BME280;55012;47.562;18.414;2023-04-26T03:55:18;99502.75;;;4.27;100.00
68193;BME280;55012;47.562;18.414;2023-04-26T03:57:43;99503.84;;;4.26;100.00
68193;BME280;55012;47.562;18.414;2023-04-26T04:00:09;99508.41;;;4.25;100.00
68193;BME280;55012;47.562;18.414;2023-04-26T04:02:38;99501.47;;;4.24;100.00
68193;BME280;55012;47.562;18.414;2023-04-26T04:05:03;99512.19;;;4.24;100.00
68193;BME280;55012;47.562;18.414;2023-04-26T04:07:29;99521.31;;;4.23;100.00
68193;BME280;55012;47.562;18.414;2023-04-26T04:09:57;99521.31;;;4.23;100.00
68193;BME280;55012;47.562;18.414;2023-04-26T04:12:24;99516.44;;;4.25;100.00
68193;BME280;55012;47.562;18.414;2023-04-26T04:14:49;99511.06;;;4.25;100.00
68193;BME280;55012;47.562;18.414;2023-04-26T04:17:17;99520.69;;;4.26;100.00
68193;BME280;55012;47.562;18.414;2023-04-26T04:19:42;99521.19;;;4.28;100.00
68193;BME280;55012;47.562;18.414;2023-04-26T04:22:09;99520.41;;;4.28;100.00
68193;BME280;55012;47.562;18.414;2023-04-26T04:24:34;99530.00;;;4.29;100.00
68193;BME280;55012;47.562;18.414;2023-04-26T04:27:00;99532.41;;;4.30;100.00
68193;BME280;55012;47.562;18.414;2023-04-26T04:29:25;99537.97;;;4.34;100.00
68193;BME280;55012;47.562;18.414;2023-04-26T04:31:51;99533.41;;;4.34;100.00
68193;BME280;55012;47.562;18.414;2023-04-26T04:34:17;99541.94;;;4.36;100.00
68193;BME280;55012;47.562;18.414;2023-04-26T04:36:43;99546.72;;;4.39;100.00
68193;BME280;55012;47.562;18.414;2023-04-26T04:39:08;99546.31;;;4.46;100.00
68193;BME280;55012;47.562;18.414;2023-04-26T04:41:38;99550.59;;;4.47;100.00
68193;BME280;55012;47.562;18.414;2023-04-26T04:44:04;99562.59;;;4.49;100.00
68193;BME280;55012;47.562;18.414;2023-04-26T04:46:29;99560.09;;;4.53;100.00
68193;BME280;55012;47.562;18.414;2023-04-26T04:48:55;99566.97;;;4.59;100.00
68193;BME280;55012;47.562;18.414;2023-04-26T04:51:20;99560.50;;;4.60;100.00
68193;BME280;55012;47.562;18.414;2023-04-26T04:53:46;99570.94;;;4.62;100.00
68193;BME280;55012;47.562;18.414;2023-04-26T04:56:11;99569.03;;;4.62;100.00
68193;BME280;55012;47.562;18.414;2023-04-26T04:58:37;99572.91;;;4.70;100.00
68193;BME280;55012;47.562;18.414;2023-04-26T05:01:02;99573.00;;;4.78;100.00
68193;BME280;55012;47.562;18.414;2023-04-26T05:03:28;99579.09;;;4.84;100.00
68193;BME280;55012;47.562;18.414;2023-04-26T05:05:54;99589.72;;;4.89;100.00
68193;BME280;55012;47.562;18.414;2023-04-26T05:08:19;99581.38;;;4.91;100.00
68193;BME280;55012;47.562;18.414;2023-04-26T05:10:44;99581.75;;;4.98;100.00
68193;BME280;55012;47.562;18.414;2023-04-26T05:13:10;99594.75;;;5.04;100.00
68193;BME280;55012;47.562;18.414;2023-04-26T05:15:35;99593.94;;;5.04;100.00
68193;BME280;55012;47.562;18.414;2023-04-26T05:18:01;99591.66;;;5.11;100.00
68193;BME280;55012;47.562;18.414;2023-04-26T05:20:26;99597.13;;;5.20;100.00
68193;BME280;55012;47.562;18.414;2023-04-26T05:22:52;99605.56;;;5.27;100.00
68193;BME280;55012;47.562;18.414;2023-04-26T05:25:17;99607.44;;;5.26;100.00
68193;BME280;55012;47.562;18.414;2023-04-26T05:27:43;99609.03;;;5.41;100.00
68193;BME280;55012;47.562;18.414;2023-04-26T05:30:10;99617.16;;;5.50;100.00
68193;BME280;55012;47.562;18.414;2023-04-26T05:32:36;99628.84;;;5.54;100.00
68193;BME280;55012;47.562;18.414;2023-04-26T05:35:02;99633.72;;;5.66;100.00
68193;BME280;55012;47.562;18.414;2023-04-26T05:37:27;99639.78;;;5.71;100.00
68193;BME280;55012;47.562;18.414;2023-04-26T05:39:53;99648.00;;;5.75;100.00
68193;BME280;55012;47.562;18.414;2023-04-26T05:42:18;99663.88;;;5.85;100.00
68193;BME280;55012;47.562;18.414;2023-04-26T05:44:44;99689.44;;;5.82;100.00
68193;BME280;55012;47.562;18.414;2023-04-26T05:47:09;99693.72;;;5.83;100.00
68193;BME280;55012;47.562;18.414;2023-04-26T05:49:35;99693.09;;;5.86;100.00
68193;BME280;55012;47.562;18.414;2023-04-26T05:52:00;99729.31;;;5.89;100.00
68193;BME280;55012;47.562;18.414;2023-04-26T05:54:28;99724.94;;;5.93;100.00
68193;BME280;55012;47.562;18.414;2023-04-26T05:56:53;99739.97;;;5.94;100.00
68193;BME280;55012;47.562;18.414;2023-04-26T05:59:18;99761.03;;;6.01;100.00
68193;BME280;55012;47.562;18.414;2023-04-26T06:01:44;99768.78;;;6.02;100.00
68193;BME280;55012;47.562;18.414;2023-04-26T06:04:10;99777.56;;;6.08;100.00
68193;BME280;55012;47.562;18.414;2023-04-26T06:06:35;99787.41;;;6.12;100.00
68193;BME280;55012;47.562;18.414;2023-04-26T06:09:01;99792.16;;;6.15;100.00
68193;BME280;55012;47.562;18.414;2023-04-26T06:11:26;99820.91;;;6.15;100.00
68193;BME280;55012;47.562;18.414;2023-04-26T06:13:52;99811.16;;;6.19;100.00
68193;BME280;55012;47.562;18.414;2023-04-26T06:16:17;99811.34;;;6.23;100.00
68193;BME280;55012;47.562;18.414;2023-04-26T06:18:43;99803.69;;;6.30;100.00
68193;BME280;55012;47.562;18.414;2023-04-26T06:21:08;99797.94;;;6.45;100.00
68193;BME280;55012;47.562;18.414;2023-04-26T06:23:34;99818.38;;;6.46;100.00
68193;BME280;55012;47.562;18.414;2023-04-26T06:25:59;99852.31;;;6.42;100.00
68193;BME280;55012;47.562;18.414;2023-04-26T06:28:25;99835.22;;;6.38;100.00
68193;BME280;55012;47.562;18.414;2023-04-26T06:30:50;99850.81;;;6.36;100.00
68193;BME280;55012;47.562;18.414;2023-04-26T06:33:16;99843.44;;;6.41;100.00
68193;BME280;55012;47.562;18.414;2023-04-26T06:35:41;99850.19;;;6.53;100.00
68193;BME280;55012;47.562;18.414;2023-04-26T06:38:07;99844.88;;;6.61;100.00
68193;BME280;55012;47.562;18.414;2023-04-26T06:40:34;99875.47;;;6.65;100.00
68193;BME280;55012;47.562;18.414;2023-04-26T06:43:01;99926.63;;;6.60;100.00
68193;BME280;55012;47.562;18.414;2023-04-26T06:45:27;99909.72;;;6.60;100.00
68193;BME280;55012;47.562;18.414;2023-04-26T06:47:53;99888.69;;;6.62;100.00
68193;BME280;55012;47.562;18.414;2023-04-26T06:50:19;99921.25;;;6.60;100.00
68193;BME280;55012;47.562;18.414;2023-04-26T06:52:44;99873.97;;;6.59;100.00
68193;BME280;55012;47.562;18.414;2023-04-26T06:55:10;99887.19;;;6.69;100.00
68193;BME280;55012;47.562;18.414;2023-04-26T06:57:35;99846.75;;;6.74;100.00
68193;BME280;55012;47.562;18.414;2023-04-26T07:00:02;99850.13;;;6.80;100.00
68193;BME280;55012;47.562;18.414;2023-04-26T07:02:28;99837.53;;;6.89;100.00
68193;BME280;55012;47.562;18.414;2023-04-26T07:04:53;99858.81;;;6.99;100.00
68193;BME280;55012;47.562;18.414;2023-04-26T07:07:20;99843.16;;;7.01;100.00
68193;BME280;55012;47.562;18.414;2023-04-26T07:09:45;99811.19;;;7.00;100.00
68193;BME280;55012;47.562;18.414;2023-04-26T07:12:11;99787.75;;;7.00;100.00
68193;BME280;55012;47.562;18.414;2023-04-26T07:14:37;99784.16;;;7.05;100.00
68193;BME280;55012;47.562;18.414;2023-04-26T07:17:07;99793.50;;;7.08;100.00
68193;BME280;55012;47.562;18.414;2023-04-26T07:19:33;99743.19;;;7.08;100.00
68193;BME280;55012;47.562;18.414;2023-04-26T07:21:58;99772.66;;;7.13;100.00
68193;BME280;55012;47.562;18.414;2023-04-26T07:24:24;99729.94;;;7.12;100.00
68193;BME280;55012;47.562;18.414;2023-04-26T07:26:49;99753.50;;;7.15;100.00
68193;BME280;55012;47.562;18.414;2023-04-26T07:29:15;99719.50;;;7.19;100.00
68193;BME280;55012;47.562;18.414;2023-04-26T07:31:43;99670.25;;;7.18;100.00
68193;BME280;55012;47.562;18.414;2023-04-26T07:34:08;99645.78;;;7.28;100.00
68193;BME280;55012;47.562;18.414;2023-04-26T07:36:34;99616.81;;;7.34;100.00
68193;BME280;55012;47.562;18.414;2023-04-26T07:38:59;99598.78;;;7.43;100.00
68193;BME280;55012;47.562;18.414;2023-04-26T07:41:25;99556.66;;;7.39;100.00
68193;BME280;55012;47.562;18.414;2023-04-26T07:43:51;99550.66;;;7.42;100.00
68193;BME280;55012;47.562;18.414;2023-04-26T07:46:16;99501.25;;;7.46;100.00
68193;BME280;55012;47.562;18.414;2023-04-26T07:48:42;99478.28;;;7.49;100.00
68193;BME280;55012;47.562;18.414;2023-04-26T07:51:10;99499.97;;;7.52;100.00
68193;BME280;55012;47.562;18.414;2023-04-26T07:53:36;99451.03;;;7.50;100.00
68193;BME280;55012;47.562;18.414;2023-04-26T07:56:05;99403.41;;;7.42;100.00
68193;BME280;55012;47.562;18.414;2023-04-26T07:58:37;99418.59;;;7.47;100.00
68193;BME280;55012;47.562;18.414;2023-04-26T08:01:04;99345.59;;;7.48;100.00
68193;BME280;55012;47.562;18.414;2023-04-26T08:03:29;99352.88;;;7.56;100.00
68193;BME280;55012;47.562;18.414;2023-04-26T08:05:55;99357.56;;;7.68;100.00
68193;BME280;55012;47.562;18.414;2023-04-26T08:08:21;99338.84;;;7.80;100.00
68193;BME280;55012;47.562;18.414;2023-04-26T08:10:47;99316.75;;;7.96;100.00
68193;BME280;55012;47.562;18.414;2023-04-26T08:13:13;98986.22;;;7.96;100.00
68193;BME280;55012;47.562;18.414;2023-04-26T08:15:38;98944.25;;;7.95;100.00
68193;BME280;55012;47.562;18.414;2023-04-26T08:18:04;98826.19;;;7.97;100.00
68193;BME280;55012;47.562;18.414;2023-04-26T08:20:30;98815.28;;;8.06;100.00
68193;BME280;55012;47.562;18.414;2023-04-26T08:22:56;98814.16;;;8.07;100.00
68193;BME280;55012;47.562;18.414;2023-04-26T08:25:23;98815.28;;;8.06;100.00
68193;BME280;55012;47.562;18.414;2023-04-26T08:27:49;98696.75;;;8.06;100.00
68193;BME280;55012;47.562;18.414;2023-04-26T08:30:15;98646.38;;;8.06;100.00
68193;BME280;55012;47.562;18.414;2023-04-26T08:32:40;98673.84;;;8.12;100.00
68193;BME280;55012;47.562;18.414;2023-04-26T08:35:06;98703.00;;;8.22;100.00
68193;BME280;55012;47.562;18.414;2023-04-26T08:37:33;98710.97;;;8.18;100.00
68193;BME280;55012;47.562;18.414;2023-04-26T08:40:00;98661.75;;;8.06;100.00
68193;BME280;55012;47.562;18.414;2023-04-26T08:42:26;98663.31;;;8.07;100.00
68193;BME280;55012;47.562;18.414;2023-04-26T08:44:52;98685.47;;;8.28;100.00
68193;BME280;55012;47.562;18.414;2023-04-26T08:47:39;98635.06;;;8.29;100.00
68193;BME280;55012;47.562;18.414;2023-04-26T08:50:10;98666.00;;;8.47;100.00
68193;BME280;55012;47.562;18.414;2023-04-26T08:52:35;98651.81;;;8.50;100.00
68193;BME280;55012;47.562;18.414;2023-04-26T08:55:04;98660.06;;;8.41;100.00
68193;BME280;55012;47.562;18.414;2023-04-26T08:57:31;98671.56;;;8.54;100.00
68193;BME280;55012;47.562;18.414;2023-04-26T09:00:01;98714.22;;;8.64;100.00
68193;BME280;55012;47.562;18.414;2023-04-26T09:02:29;98766.13;;;8.61;100.00
68193;BME280;55012;47.562;18.414;2023-04-26T09:04:55;98790.34;;;8.73;100.00
68193;BME280;55012;47.562;18.414;2023-04-26T09:07:30;98758.03;;;8.89;100.00
68193;BME280;55012;47.562;18.414;2023-04-26T09:09:57;98768.31;;;8.99;100.00
68193;BME280;55012;47.562;18.414;2023-04-26T09:12:23;98774.41;;;8.96;100.00
68193;BME280;55012;47.562;18.414;2023-04-26T09:14:50;98777.78;;;8.93;100.00
68193;BME280;55012;47.562;18.414;2023-04-26T09:17:28;98808.94;;;8.91;100.00
68193;BME280;55012;47.562;18.414;2023-04-26T09:19:58;98809.63;;;8.88;100.00
68193;BME280;55012;47.562;18.414;2023-04-26T09:22:36;98859.50;;;8.94;100.00
68193;BME280;55012;47.562;18.414;2023-04-26T09:25:04;98923.34;;;9.02;100.00
68193;BME280;55012;47.562;18.414;2023-04-26T09:27:41;98893.75;;;9.06;100.00
68193;BME280;55012;47.562;18.414;2023-04-26T09:32:51;98927.66;;;9.47;100.00
68193;BME280;55012;47.562;18.414;2023-04-26T09:35:34;98974.44;;;9.51;100.00
68193;BME280;55012;47.562;18.414;2023-04-26T09:38:01;98981.91;;;9.70;100.00
68193;BME280;55012;47.562;18.414;2023-04-26T09:40:40;99036.13;;;9.77;100.00
68193;BME280;55012;47.562;18.414;2023-04-26T09:43:11;99008.84;;;9.82;100.00
68193;BME280;55012;47.562;18.414;2023-04-26T09:45:53;99095.41;;;9.85;100.00
68193;BME280;55012;47.562;18.414;2023-04-26T09:48:21;99092.19;;;9.68;100.00
68193;BME280;55012;47.562;18.414;2023-04-26T09:50:48;99116.50;;;9.68;100.00
68193;BME280;55012;47.562;18.414;2023-04-26T09:53:35;99129.06;;;9.88;100.00
68193;BME280;55012;47.562;18.414;2023-04-26T09:56:14;99150.88;;;9.95;100.00
68193;BME280;55012;47.562;18.414;2023-04-26T10:01:09;99151.16;;;9.66;100.00
68193;BME280;55012;47.562;18.414;2023-04-26T10:03:36;99172.53;;;9.83;100.00
68193;BME280;55012;47.562;18.414;2023-04-26T10:06:02;99225.06;;;9.98;100.00
68193;BME280;55012;47.562;18.414;2023-04-26T10:08:30;99170.81;;;9.91;100.00
68193;BME280;55012;47.562;18.414;2023-04-26T10:10:55;99194.13;;;9.95;100.00
68193;BME280;55012;47.562;18.414;2023-04-26T10:13:21;99163.63;;;9.95;100.00
68193;BME280;55012;47.562;18.414;2023-04-26T10:15:47;99137.28;;;10.20;100.00
68193;BME280;55012;47.562;18.414;2023-04-26T10:18:13;99136.06;;;10.45;100.00
68193;BME280;55012;47.562;18.414;2023-04-26T10:20:40;99177.00;;;10.44;100.00
68193;BME280;55012;47.562;18.414;2023-04-26T10:23:16;99227.63;;;10.19;100.00
68193;BME280;55012;47.562;18.414;2023-04-26T10:25:45;99152.81;;;9.95;100.00
68193;BME280;55012;47.562;18.414;2023-04-26T10:28:11;99139.97;;;9.92;100.00
68193;BME280;55012;47.562;18.414;2023-04-26T10:30:56;99162.69;;;10.03;100.00
68193;BME280;55012;47.562;18.414;2023-04-26T10:33:23;99172.81;;;10.06;100.00
68193;BME280;55012;47.562;18.414;2023-04-26T10:36:06;99151.75;;;9.99;100.00
68193;BME280;55012;47.562;18.414;2023-04-26T10:38:37;99128.09;;;10.08;100.00
68193;BME280;55012;47.562;18.414;2023-04-26T10:41:34;99158.44;;;10.30;100.00
68193;BME280;55012;47.562;18.414;2023-04-26T10:47:05;99139.84;;;10.56;100.00
68193;BME280;55012;47.562;18.414;2023-04-26T10:49:43;99157.13;;;10.52;100.00
68193;BME280;55012;47.562;18.414;2023-04-26T10:52:12;99147.13;;;10.40;100.00
68193;BME280;55012;47.562;18.414;2023-04-26T10:57:18;99115.53;;;10.28;100.00
68193;BME280;55012;47.562;18.414;2023-04-26T11:02:57;99159.94;;;10.27;100.00
68193;BME280;55012;47.562;18.414;2023-04-26T11:05:40;99140.94;;;10.11;100.00
68193;BME280;55012;47.562;18.414;2023-04-26T11:10:38;99095.50;;;10.45;100.00
68193;BME280;55012;47.562;18.414;2023-04-26T11:13:03;99095.41;;;10.57;100.00
68193;BME280;55012;47.562;18.414;2023-04-26T11:15:32;99135.13;;;10.53;100.00
68193;BME280;55012;47.562;18.414;2023-04-26T11:18:01;99126.63;;;10.39;100.00
68193;BME280;55012;47.562;18.414;2023-04-26T11:20:31;99107.13;;;10.46;100.00
68193;BME280;55012;47.562;18.414;2023-04-26T11:22:57;99103.28;;;10.47;100.00
68193;BME280;55012;47.562;18.414;2023-04-26T11:25:28;99078.22;;;10.50;100.00
68193;BME280;55012;47.562;18.414;2023-04-26T11:28:00;99079.19;;;10.73;100.00
68193;BME280;55012;47.562;18.414;2023-04-26T11:30:28;99149.47;;;10.85;100.00
68193;BME280;55012;47.562;18.414;2023-04-26T11:32:54;99158.88;;;10.60;100.00
68193;BME280;55012;47.562;18.414;2023-04-26T11:35:21;99143.69;;;10.55;100.00
68193;BME280;55012;47.562;18.414;2023-04-26T11:37:49;99178.78;;;10.67;100.00
68193;BME280;55012;47.562;18.414;2023-04-26T11:40:16;99140.56;;;10.69;100.00
68193;BME280;55012;47.562;18.414;2023-04-26T11:42:43;99154.09;;;10.69;100.00
68193;BME280;55012;47.562;18.414;2023-04-26T11:45:09;99130.84;;;10.52;100.00
68193;BME280;55012;47.562;18.414;2023-04-26T11:47:35;99135.66;;;10.43;100.00
68193;BME280;55012;47.562;18.414;2023-04-26T11:50:01;99138.75;;;10.29;100.00
68193;BME280;55012;47.562;18.414;2023-04-26T11:52:28;99111.16;;;10.24;100.00
68193;BME280;55012;47.562;18.414;2023-04-26T11:55:01;99123.66;;;10.28;100.00
68193;BME280;55012;47.562;18.414;2023-04-26T11:57:29;99111.97;;;10.40;100.00
68193;BME280;55012;47.562;18.414;2023-04-26T12:00:10;99100.47;;;10.59;100.00
68193;BME280;55012;47.562;18.414;2023-04-26T12:02:37;99124.41;;;10.73;100.00
68193;BME280;55012;47.562;18.414;2023-04-26T12:05:02;99151.91;;;10.75;100.00
68193;BME280;55012;47.562;18.414;2023-04-26T12:07:34;99112.19;;;10.63;100.00
68193;BME280;55012;47.562;18.414;2023-04-26T12:10:18;99131.19;;;10.66;100.00
68193;BME280;55012;47.562;18.414;2023-04-26T12:12:51;99123.09;;;10.82;100.00
68193;BME280;55012;47.562;18.414;2023-04-26T12:15:18;99161.16;;;10.89;100.00
68193;BME280;55012;47.562;18.414;2023-04-26T12:17:59;99141.94;;;10.63;100.00
68193;BME280;55012;47.562;18.414;2023-04-26T12:20:30;99124.81;;;10.59;100.00
68193;BME280;55012;47.562;18.414;2023-04-26T12:23:07;99148.38;;;10.58;100.00
68193;BME280;55012;47.562;18.414;2023-04-26T12:25:34;99198.78;;;10.51;100.00
68193;BME280;55012;47.562;18.414;2023-04-26T12:28:01;99152.50;;;10.52;100.00
68193;BME280;55012;47.562;18.414;2023-04-26T12:30:28;99136.19;;;10.64;100.00
68193;BME280;55012;47.562;18.414;2023-04-26T12:32:54;99141.69;;;10.84;100.00
68193;BME280;55012;47.562;18.414;2023-04-26T12:35:21;99144.06;;;10.85;100.00
68193;BME280;55012;47.562;18.414;2023-04-26T12:37:46;99135.16;;;10.85;100.00
68193;BME280;55012;47.562;18.414;2023-04-26T12:40:13;99147.53;;;10.70;100.00
68193;BME280;55012;47.562;18.414;2023-04-26T12:42:40;99144.00;;;10.38;100.00
68193;BME280;55012;47.562;18.414;2023-04-26T12:45:06;99193.50;;;10.26;100.00
68193;BME280;55012;47.562;18.414;2023-04-26T12:47:32;99118.53;;;10.39;100.00
68193;BME280;55012;47.562;18.414;2023-04-26T12:49:58;99172.56;;;10.51;100.00
68193;BME280;55012;47.562;18.414;2023-04-26T12:52:25;99137.22;;;10.76;100.00
68193;BME280;55012;47.562;18.414;2023-04-26T12:54:51;99151.50;;;11.04;100.00
68193;BME280;55012;47.562;18.414;2023-04-26T12:57:18;99172.44;;;11.23;100.00
68193;BME280;55012;47.562;18.414;2023-04-26T12:59:44;99147.38;;;11.26;100.00
68193;BME280;55012;47.562;18.414;2023-04-26T13:02:09;99187.22;;;11.10;100.00
68193;BME280;55012;47.562;18.414;2023-04-26T13:04:35;99148.59;;;10.81;100.00